createdAt,value
2018-05-26T00:01:35.218Z,18.80
2018-05-26T00:04:05.755Z,18.70
2018-05-26T00:06:34.786Z,18.70
2018-05-26T00:09:11.386Z,18.70
2018-05-26T00:11:40.174Z,18.70
2018-05-26T00:14:11.511Z,18.70
2018-05-26T00:18:46.822Z,18.60
2018-05-26T00:21:16.708Z,18.60
2018-05-26T00:23:45.500Z,18.50
2018-05-26T00:26:16.431Z,18.60
2018-05-26T00:28:45.469Z,18.50
2018-05-26T00:31:21.691Z,18.50
2018-05-26T00:33:50.442Z,18.50
2018-05-26T00:36:20.521Z,18.50
2018-05-26T00:38:50.058Z,18.50
2018-05-26T00:41:23.236Z,18.50
2018-05-26T00:43:52.417Z,18.50
2018-05-26T00:46:25.203Z,18.50
2018-05-26T00:48:54.042Z,18.50
2018-05-26T00:51:28.173Z,18.50
2018-05-26T00:53:57.052Z,18.50
2018-05-26T00:56:33.203Z,18.60
2018-05-26T00:59:03.188Z,18.60
2018-05-26T01:01:32.017Z,18.50
2018-05-26T01:04:00.798Z,18.60
2018-05-26T01:06:37.289Z,18.50
2018-05-26T01:09:06.891Z,18.50
2018-05-26T01:11:36.246Z,18.40
2018-05-26T01:14:14.081Z,18.50
2018-05-26T01:16:42.806Z,18.40
2018-05-26T01:19:12.400Z,18.40
2018-05-26T01:21:41.945Z,18.40
2018-05-26T01:24:10.810Z,18.40
2018-05-26T01:26:47.244Z,18.40
2018-05-26T01:29:16.754Z,18.30
2018-05-26T01:31:45.517Z,18.30
2018-05-26T01:34:14.599Z,18.30
2018-05-26T01:36:51.335Z,18.20
2018-05-26T01:39:20.123Z,18.20
2018-05-26T01:41:50.558Z,18.10
2018-05-26T01:44:19.355Z,18.10
2018-05-26T01:46:56.061Z,18.10
2018-05-26T01:49:25.178Z,18.00
2018-05-26T01:51:57.143Z,18.10
2018-05-26T01:54:26.678Z,18.00
2018-05-26T01:56:58.768Z,18.00
2018-05-26T01:59:27.573Z,18.00
2018-05-26T02:02:01.823Z,18.00
2018-05-26T02:04:31.373Z,17.90
2018-05-26T02:07:10.589Z,17.90
2018-05-26T02:09:39.367Z,17.90
2018-05-26T02:12:08.815Z,17.90
2018-05-26T02:14:37.945Z,17.90
2018-05-26T02:19:49.794Z,17.80
2018-05-26T02:22:19.461Z,17.80
2018-05-26T02:24:49.085Z,17.70
2018-05-26T02:27:18.169Z,17.70
2018-05-26T02:29:47.718Z,17.70
2018-05-26T02:32:21.001Z,17.70
2018-05-26T02:34:50.135Z,17.70
2018-05-26T02:37:19.981Z,17.60
2018-05-26T02:39:48.825Z,17.60
2018-05-26T02:42:25.197Z,17.60
2018-05-26T02:44:53.927Z,17.60
2018-05-26T02:47:24.190Z,17.60
2018-05-26T02:49:53.223Z,17.60
2018-05-26T02:52:30.411Z,17.60
2018-05-26T02:55:01.440Z,17.50
2018-05-26T02:57:31.009Z,17.50
2018-05-26T02:59:59.850Z,17.50
2018-05-26T03:02:30.922Z,17.60
2018-05-26T03:05:04.941Z,17.50
2018-05-26T03:07:38.820Z,17.50
2018-05-26T03:10:13.262Z,17.50
2018-05-26T03:12:47.086Z,17.50
2018-05-26T03:15:15.296Z,17.50
2018-05-26T03:17:44.194Z,17.40
2018-05-26T03:20:20.192Z,17.40
2018-05-26T03:22:49.008Z,17.40
2018-05-26T03:25:17.845Z,17.40
2018-05-26T03:27:46.913Z,17.40
2018-05-26T03:30:24.457Z,17.40
2018-05-26T03:32:53.308Z,17.40
2018-05-26T03:35:22.129Z,17.40
2018-05-26T03:37:50.949Z,17.40
2018-05-26T03:40:19.980Z,17.40
2018-05-26T03:42:50.310Z,17.40
2018-05-26T03:45:19.144Z,17.40
2018-05-26T03:47:52.321Z,17.40
2018-05-26T03:50:28.501Z,17.40
2018-05-26T03:52:57.308Z,17.50
2018-05-26T03:59:49.902Z,17.40
2018-05-26T04:02:18.939Z,17.40
2018-05-26T04:04:47.733Z,17.40
2018-05-26T04:07:16.813Z,17.40
2018-05-26T04:09:45.572Z,17.40
2018-05-26T04:12:14.335Z,17.40
2018-05-26T04:14:44.193Z,17.40
2018-05-26T04:17:14.254Z,17.30
2018-05-26T04:19:43.765Z,17.40
2018-05-26T04:22:17.240Z,17.40
2018-05-26T04:24:46.042Z,17.30
2018-05-26T04:27:15.608Z,17.40
2018-05-26T04:29:44.619Z,17.40
2018-05-26T04:32:21.190Z,17.40
2018-05-26T04:34:49.968Z,17.40
2018-05-26T04:37:33.299Z,17.40
2018-05-26T04:40:02.093Z,17.40
2018-05-26T04:42:31.152Z,17.50
2018-05-26T04:44:59.907Z,17.50
2018-05-26T04:47:45.132Z,17.50
2018-05-26T04:50:13.860Z,17.50
2018-05-26T04:52:43.372Z,17.60
2018-05-26T04:55:13.153Z,17.60
2018-05-26T04:57:41.865Z,17.60
2018-05-26T05:00:11.658Z,17.70
2018-05-26T05:02:41.264Z,17.80
2018-05-26T05:05:15.421Z,17.80
2018-05-26T05:07:44.431Z,17.80
2018-05-26T05:10:23.158Z,17.80
2018-05-26T05:12:52.162Z,17.90
2018-05-26T05:15:20.966Z,17.90
2018-05-26T05:17:49.769Z,18.00
2018-05-26T05:20:19.640Z,18.00
2018-05-26T05:22:48.443Z,18.10
2018-05-26T05:25:18.433Z,18.10
2018-05-26T05:27:47.288Z,18.10
2018-05-26T05:30:16.032Z,18.20
2018-05-26T05:32:45.089Z,18.30
2018-05-26T05:35:13.861Z,18.30
2018-05-26T05:37:46.568Z,18.40
2018-05-26T05:40:15.297Z,18.50
2018-05-26T05:42:51.993Z,18.60
2018-05-26T05:45:30.903Z,18.60
2018-05-26T05:48:00.459Z,18.80
2018-05-26T05:50:29.257Z,18.80
2018-05-26T05:52:58.002Z,18.90
2018-05-26T05:55:26.787Z,18.90
2018-05-26T05:57:57.342Z,19.00
2018-05-26T06:00:33.811Z,19.10
2018-05-26T06:03:02.719Z,19.20
2018-05-26T06:05:31.738Z,19.30
2018-05-26T06:08:03.944Z,19.30
2018-05-26T06:10:32.653Z,19.40
2018-05-26T06:13:09.598Z,19.60
2018-05-26T06:15:38.369Z,19.60
2018-05-26T06:18:08.933Z,19.80
2018-05-26T06:20:37.957Z,19.80
2018-05-26T06:23:16.047Z,19.90
2018-05-26T06:25:44.851Z,19.90
2018-05-26T06:28:15.284Z,20.00
2018-05-26T06:30:44.025Z,20.10
2018-05-26T06:33:20.309Z,20.20
2018-05-26T06:35:49.385Z,20.30
2018-05-26T06:38:18.260Z,20.30
2018-05-26T06:40:47.188Z,20.40
2018-05-26T06:43:23.409Z,20.50
2018-05-26T06:45:52.507Z,20.60
2018-05-26T06:48:22.924Z,20.70
2018-05-26T06:50:52.073Z,20.70
2018-05-26T06:53:28.462Z,20.70
2018-05-26T06:55:57.260Z,20.80
2018-05-26T06:58:33.163Z,20.80
2018-05-26T07:01:02.014Z,20.90
2018-05-26T07:03:31.624Z,21.00
2018-05-26T07:06:00.402Z,21.00
2018-05-26T07:08:33.241Z,21.20
2018-05-26T07:11:02.046Z,21.10
2018-05-26T07:13:34.876Z,21.20
2018-05-26T07:16:05.094Z,21.30
2018-05-26T07:18:37.331Z,21.40
2018-05-26T07:21:07.098Z,21.50
2018-05-26T07:23:39.525Z,21.50
2018-05-26T07:26:08.358Z,21.60
2018-05-26T07:28:44.727Z,21.60
2018-05-26T07:31:13.795Z,21.70
2018-05-26T07:33:44.238Z,21.70
2018-05-26T07:36:13.009Z,21.80
2018-05-26T07:38:45.666Z,21.80
2018-05-26T07:41:15.171Z,21.90
2018-05-26T07:43:51.982Z,21.90
2018-05-26T07:46:21.269Z,22.00
2018-05-26T07:48:51.484Z,22.00
2018-05-26T07:51:20.901Z,22.00
2018-05-26T07:53:53.750Z,22.10
2018-05-26T07:56:23.635Z,22.10
2018-05-26T07:58:56.320Z,22.00
2018-05-26T08:01:25.473Z,22.00
2018-05-26T08:04:01.829Z,22.10
2018-05-26T08:06:30.838Z,22.10
2018-05-26T08:09:02.262Z,22.20
2018-05-26T08:11:31.821Z,22.20
2018-05-26T08:14:08.057Z,22.10
2018-05-26T08:16:37.002Z,22.20
2018-05-26T08:19:09.415Z,22.20
2018-05-26T08:21:38.484Z,22.20
2018-05-26T08:24:12.561Z,22.30
2018-05-26T08:26:41.408Z,22.30
2018-05-26T08:29:13.444Z,22.40
2018-05-26T08:31:42.961Z,22.50
2018-05-26T08:34:16.268Z,22.70
2018-05-26T08:36:45.256Z,22.70
2018-05-26T08:39:21.449Z,22.80
2018-05-26T08:41:51.051Z,23.00
2018-05-26T08:44:20.005Z,22.90
2018-05-26T08:46:49.117Z,23.10
2018-05-26T08:49:25.673Z,23.20
2018-05-26T08:51:54.490Z,23.40
2018-05-26T08:54:24.525Z,23.60
2018-05-26T08:56:53.486Z,23.70
2018-05-26T08:59:26.949Z,24.10
2018-05-26T09:01:56.717Z,24.20
2018-05-26T09:04:29.425Z,24.20
2018-05-26T09:06:59.344Z,24.60
2018-05-26T09:09:32.189Z,24.50
2018-05-26T09:12:03.441Z,24.70
2018-05-26T09:14:35.743Z,24.90
2018-05-26T09:17:05.593Z,25.50
2018-05-26T09:19:36.210Z,25.50
2018-05-26T09:22:06.129Z,26.00
2018-05-26T09:24:38.803Z,26.30
2018-05-26T09:27:07.655Z,26.30
2018-05-26T09:29:41.070Z,26.70
2018-05-26T09:32:10.768Z,27.00
2018-05-26T09:34:44.015Z,27.10
2018-05-26T09:37:13.240Z,27.10
2018-05-26T09:39:49.281Z,27.30
2018-05-26T09:42:18.132Z,27.50
2018-05-26T09:44:48.752Z,27.80
2018-05-26T09:47:18.425Z,28.20
2018-05-26T09:49:55.461Z,28.50
2018-05-26T09:52:24.201Z,28.40
2018-05-26T09:54:53.336Z,28.70
2018-05-26T09:57:22.989Z,29.20
2018-05-26T09:59:59.447Z,29.20
2018-05-26T10:02:29.669Z,29.40
2018-05-26T10:04:59.761Z,29.60
2018-05-26T10:07:28.748Z,29.70
2018-05-26T10:10:05.977Z,29.90
2018-05-26T10:12:35.750Z,29.90
2018-05-26T10:15:04.633Z,29.90
2018-05-26T10:17:34.587Z,29.80
2018-05-26T10:20:11.388Z,29.80
2018-05-26T10:22:41.049Z,29.70
2018-05-26T10:25:10.959Z,29.70
2018-05-26T10:27:40.876Z,29.80
2018-05-26T10:30:13.768Z,29.90
2018-05-26T10:32:42.619Z,30.00
2018-05-26T10:35:18.944Z,30.00
2018-05-26T10:37:48.086Z,30.00
2018-05-26T10:40:20.236Z,30.10
2018-05-26T10:42:49.895Z,29.90
2018-05-26T10:45:32.432Z,29.90
2018-05-26T10:48:01.349Z,29.90
2018-05-26T10:50:30.974Z,30.00
2018-05-26T10:53:00.136Z,30.30
2018-05-26T10:55:29.505Z,30.50
2018-05-26T10:57:58.365Z,30.60
2018-05-26T11:00:30.411Z,30.90
2018-05-26T11:03:00.279Z,31.30
2018-05-26T11:05:32.840Z,31.30
2018-05-26T11:08:02.976Z,31.40
2018-05-26T11:10:35.384Z,31.50
2018-05-26T11:13:05.392Z,31.70
2018-05-26T11:15:36.967Z,31.80
2018-05-26T11:18:08.202Z,31.70
2018-05-26T11:20:38.019Z,31.30
2018-05-26T11:23:08.188Z,30.90
2018-05-26T11:25:41.468Z,30.80
2018-05-26T11:28:11.229Z,30.90
2018-05-26T11:30:43.853Z,30.80
2018-05-26T11:33:13.126Z,31.00
2018-05-26T11:35:48.504Z,31.20
2018-05-26T11:38:17.799Z,31.40
2018-05-26T11:40:47.266Z,31.60
2018-05-26T11:43:16.618Z,31.70
2018-05-26T11:45:49.347Z,31.80
2018-05-26T11:48:18.174Z,31.80
2018-05-26T11:50:54.394Z,31.80
2018-05-26T11:53:23.420Z,31.90
2018-05-26T11:55:55.652Z,32.00
2018-05-26T11:58:24.493Z,32.00
2018-05-26T12:00:57.556Z,32.10
2018-05-26T12:03:26.468Z,32.10
2018-05-26T12:06:02.465Z,31.90
2018-05-26T12:08:32.119Z,31.60
2018-05-26T12:11:02.350Z,31.60
2018-05-26T12:13:31.525Z,31.70
2018-05-26T12:16:07.583Z,31.70
2018-05-26T12:18:36.460Z,31.40
2018-05-26T12:21:08.905Z,31.50
2018-05-26T12:23:38.499Z,31.90
2018-05-26T12:26:15.433Z,32.00
2018-05-26T12:28:45.899Z,32.00
2018-05-26T12:31:14.783Z,32.00
2018-05-26T12:33:44.850Z,32.20
2018-05-26T12:36:17.285Z,32.20
2018-05-26T12:38:46.903Z,32.30
2018-05-26T12:41:19.641Z,32.40
2018-05-26T12:43:52.456Z,32.40
2018-05-26T12:46:22.131Z,32.40
2018-05-26T12:48:52.040Z,32.40
2018-05-26T12:51:23.974Z,32.40
2018-05-26T12:53:52.811Z,32.30
2018-05-26T12:56:25.899Z,32.40
2018-05-26T12:58:54.739Z,32.40
2018-05-26T13:01:27.480Z,32.60
2018-05-26T13:03:57.429Z,32.50
2018-05-26T13:06:34.765Z,32.50
2018-05-26T13:09:03.821Z,32.30
2018-05-26T13:11:33.052Z,32.30
2018-05-26T13:14:01.943Z,32.20
2018-05-26T13:16:34.998Z,32.30
2018-05-26T13:19:04.454Z,32.40
2018-05-26T13:21:37.245Z,32.30
2018-05-26T13:24:06.883Z,32.20
2018-05-26T13:26:39.544Z,32.20
2018-05-26T13:29:08.453Z,32.20
2018-05-26T13:31:41.236Z,32.10
2018-05-26T13:34:10.347Z,31.90
2018-05-26T13:36:47.228Z,31.70
2018-05-26T13:39:16.029Z,31.60
2018-05-26T13:41:46.612Z,31.50
2018-05-26T13:44:16.318Z,31.60
2018-05-26T13:46:49.948Z,31.50
2018-05-26T13:49:19.088Z,31.60
2018-05-26T13:51:51.120Z,31.70
2018-05-26T13:54:20.059Z,31.60
2018-05-26T13:56:56.237Z,31.80
2018-05-26T13:59:25.121Z,31.80
2018-05-26T14:01:57.655Z,31.90
2018-05-26T14:04:27.499Z,31.90
2018-05-26T14:06:58.211Z,31.80
2018-05-26T14:09:27.821Z,31.80
2018-05-26T14:12:01.517Z,31.70
2018-05-26T14:14:32.379Z,31.70
2018-05-26T14:17:06.021Z,31.40
2018-05-26T14:19:35.108Z,31.40
2018-05-26T14:22:08.679Z,31.40
2018-05-26T14:24:38.580Z,31.20
2018-05-26T14:27:12.368Z,31.20
2018-05-26T14:29:41.314Z,31.30
2018-05-26T14:32:15.087Z,31.50
2018-05-26T14:34:46.378Z,31.50
2018-05-26T14:37:17.378Z,31.50
2018-05-26T14:39:46.297Z,31.60
2018-05-26T14:42:18.957Z,31.50
2018-05-26T14:44:47.782Z,31.50
2018-05-26T14:47:21.494Z,31.40
2018-05-26T14:49:50.739Z,31.40
2018-05-26T14:52:23.452Z,31.40
2018-05-26T14:54:53.023Z,31.30
2018-05-26T14:57:25.860Z,31.30
2018-05-26T14:59:55.959Z,31.40
2018-05-26T15:02:28.944Z,31.20
2018-05-26T15:04:57.913Z,31.20
2018-05-26T15:07:30.431Z,31.20
2018-05-26T15:09:59.297Z,31.10
2018-05-26T15:12:32.978Z,31.10
2018-05-26T15:15:01.873Z,31.00
2018-05-26T15:17:35.679Z,31.00
2018-05-26T15:20:05.021Z,30.90
2018-05-26T15:22:37.820Z,30.80
2018-05-26T15:25:06.869Z,30.80
2018-05-26T15:27:41.424Z,30.80
2018-05-26T15:30:11.431Z,30.70
2018-05-26T15:32:43.398Z,30.70
2018-05-26T15:35:13.388Z,30.40
2018-05-26T15:37:53.606Z,30.40
2018-05-26T15:40:23.060Z,30.40
2018-05-26T15:42:52.840Z,30.30
2018-05-26T15:45:21.805Z,30.10
2018-05-26T15:47:50.967Z,30.00
2018-05-26T15:50:19.943Z,30.00
2018-05-26T15:52:52.919Z,29.90
2018-05-26T15:55:21.844Z,29.80
2018-05-26T15:58:00.097Z,29.80
2018-05-26T16:00:30.282Z,29.70
2018-05-26T16:02:59.891Z,29.50
2018-05-26T16:05:29.166Z,29.30
2018-05-26T16:08:00.023Z,29.10
2018-05-26T16:10:31.102Z,29.10
2018-05-26T16:13:03.971Z,29.00
2018-05-26T16:15:33.996Z,28.80
2018-05-26T16:18:06.361Z,28.80
2018-05-26T16:20:36.026Z,28.70
2018-05-26T16:23:08.581Z,28.70
2018-05-26T16:25:37.715Z,28.70
2018-05-26T16:28:13.762Z,28.60
2018-05-26T16:30:43.418Z,28.60
2018-05-26T16:33:15.996Z,28.40
2018-05-26T16:35:46.052Z,28.20
2018-05-26T16:38:17.795Z,28.20
2018-05-26T16:40:46.672Z,28.20
2018-05-26T16:43:20.114Z,28.10
2018-05-26T16:45:49.292Z,28.00
2018-05-26T16:48:22.000Z,28.00
2018-05-26T16:50:55.648Z,27.90
2018-05-26T16:53:26.504Z,27.70
2018-05-26T16:55:56.077Z,27.70
2018-05-26T16:58:27.779Z,27.60
2018-05-26T17:00:59.366Z,27.60
2018-05-26T17:03:30.731Z,27.60
2018-05-26T17:06:00.704Z,27.50
2018-05-26T17:08:32.144Z,27.50
2018-05-26T17:11:01.000Z,27.40
2018-05-26T17:13:33.067Z,27.40
2018-05-26T17:16:01.903Z,27.40
2018-05-26T17:18:36.129Z,27.30
2018-05-26T17:21:08.900Z,27.30
2018-05-26T17:23:37.856Z,27.20
2018-05-26T17:26:06.727Z,27.20
2018-05-26T17:28:40.281Z,27.10
2018-05-26T17:31:09.225Z,27.10
2018-05-26T17:33:42.588Z,27.00
2018-05-26T17:36:11.735Z,27.00
2018-05-26T17:38:45.238Z,26.80
2018-05-26T17:41:26.619Z,26.80
2018-05-26T17:43:55.532Z,26.80
2018-05-26T17:46:25.413Z,26.70
2018-05-26T17:48:54.241Z,26.70
2018-05-26T17:51:50.247Z,26.60
2018-05-26T17:54:19.171Z,26.60
2018-05-26T17:56:54.921Z,26.60
2018-05-26T17:59:24.100Z,26.50
2018-05-26T18:01:57.361Z,26.40
2018-05-26T18:04:26.344Z,26.40
2018-05-26T18:07:00.444Z,26.30
2018-05-26T18:09:30.015Z,26.30
2018-05-26T18:12:03.802Z,26.30
2018-05-26T18:14:32.594Z,26.20
2018-05-26T18:17:05.425Z,26.20
2018-05-26T18:19:35.789Z,26.20
2018-05-26T18:22:08.221Z,26.10
2018-05-26T18:24:37.263Z,26.10
2018-05-26T18:27:14.035Z,26.00
2018-05-26T18:29:43.107Z,26.00
2018-05-26T18:32:15.230Z,26.00
2018-05-26T18:34:44.448Z,25.90
2018-05-26T18:37:17.241Z,25.90
2018-05-26T18:39:46.257Z,25.80
2018-05-26T18:42:20.173Z,25.80
2018-05-26T18:44:49.193Z,25.80
2018-05-26T18:47:21.293Z,25.70
2018-05-26T18:49:50.613Z,25.70
2018-05-26T18:52:23.757Z,25.60
2018-05-26T18:54:52.723Z,25.60
2018-05-26T18:57:26.812Z,25.60
2018-05-26T18:59:55.869Z,25.60
2018-05-26T19:02:29.595Z,25.50
2018-05-26T19:04:59.491Z,25.40
2018-05-26T19:07:30.687Z,25.40
2018-05-26T19:09:59.670Z,25.40
2018-05-26T19:12:32.936Z,25.30
2018-05-26T19:15:02.702Z,25.30
2018-05-26T19:17:36.673Z,25.20
2018-05-26T19:20:06.915Z,25.20
2018-05-26T19:22:37.921Z,25.10
2018-05-26T19:25:08.691Z,25.10
2018-05-26T19:27:41.002Z,25.00
2018-05-26T19:30:11.789Z,25.00
2018-05-26T19:32:43.338Z,25.00
2018-05-26T19:35:14.488Z,25.00
2018-05-26T19:37:46.487Z,24.90
2018-05-26T19:41:17.873Z,24.80
2018-05-26T19:45:18.412Z,24.80
2018-05-26T19:47:50.870Z,24.70
2018-05-26T19:50:22.226Z,24.60
2018-05-26T19:52:52.976Z,24.60
2018-05-26T19:55:21.998Z,24.50
2018-05-26T19:57:55.627Z,24.50
2018-05-26T20:00:25.755Z,24.40
2018-05-26T20:03:01.335Z,24.40
2018-05-26T20:05:30.582Z,24.30
2018-05-26T20:08:01.525Z,24.30
2018-05-26T20:10:31.379Z,24.30
2018-05-26T20:13:04.494Z,24.20
2018-05-26T20:15:35.847Z,24.20
2018-05-26T20:18:06.911Z,24.10
2018-05-26T20:20:37.053Z,24.10
2018-05-26T20:23:09.822Z,24.00
2018-05-26T20:25:38.896Z,24.00
2018-05-26T20:28:11.537Z,23.90
2018-05-26T20:30:40.664Z,23.90
2018-05-26T20:33:16.799Z,23.90
2018-05-26T20:35:46.336Z,23.80
2018-05-26T20:38:18.264Z,23.80
2018-05-26T20:40:47.310Z,23.70
2018-05-26T20:43:19.829Z,23.60
2018-05-26T20:45:50.839Z,23.60
2018-05-26T20:48:22.030Z,23.50
2018-05-26T20:50:51.006Z,23.50
2018-05-26T20:53:29.454Z,23.40
2018-05-26T20:55:59.814Z,23.40
2018-05-26T20:58:30.139Z,23.30
2018-05-26T21:01:00.313Z,23.30
2018-05-26T21:03:31.276Z,23.30
2018-05-26T21:06:03.571Z,23.20
2018-05-26T21:08:33.825Z,23.20
2018-05-26T21:11:17.090Z,23.20
2018-05-26T21:13:58.997Z,23.10
2018-05-26T22:42:51.892Z,22.10
2018-05-26T22:45:21.619Z,22.10
2018-05-26T22:47:51.061Z,22.00
2018-05-26T22:50:21.027Z,22.00
2018-05-26T22:52:49.914Z,21.90
2018-05-26T22:55:22.733Z,21.90
2018-05-26T22:57:51.502Z,21.80
2018-05-26T23:00:25.070Z,21.70
2018-05-26T23:02:55.420Z,21.70
2018-05-26T23:05:24.649Z,21.70
2018-05-26T23:07:53.714Z,21.70
2018-05-26T23:10:30.927Z,21.70
2018-05-26T23:13:00.011Z,21.60
2018-05-26T23:15:29.972Z,21.60
2018-05-26T23:17:59.288Z,21.60
2018-05-26T23:20:35.845Z,21.60
2018-05-26T23:23:04.792Z,21.60
2018-05-26T23:25:34.788Z,21.60
2018-05-26T23:28:04.726Z,21.60
2018-05-26T23:30:38.487Z,21.60
2018-05-26T23:33:07.795Z,21.60
2018-05-26T23:35:40.123Z,21.60
2018-05-26T23:38:09.313Z,21.50
2018-05-26T23:40:41.376Z,21.60
2018-05-26T23:43:10.232Z,21.60
2018-05-26T23:45:43.682Z,21.60
2018-05-26T23:48:13.228Z,21.60
2018-05-26T23:50:46.537Z,21.60
2018-05-26T23:53:19.111Z,21.60
2018-05-26T23:55:48.924Z,21.60
2018-05-26T23:58:19.046Z,21.50
